sensor_id;sensor_type;location;lat;lon;timestamp;P1;durP1;ratioP1;P2;durP2;ratioP2
70102;SDS011;57470;50.034;15.256;2023-07-13T00:01:26;9.47;;;3.60;;
70102;SDS011;57470;50.034;15.256;2023-07-13T00:03:51;6.05;;;2.67;;
70102;SDS011;57470;50.034;15.256;2023-07-13T00:06:17;7.40;;;2.53;;
70102;SDS011;57470;50.034;15.256;2023-07-13T00:08:42;6.93;;;2.63;;
70102;SDS011;57470;50.034;15.256;2023-07-13T00:11:08;5.18;;;2.20;;
70102;SDS011;57470;50.034;15.256;2023-07-13T00:13:35;5.85;;;1.85;;
70102;SDS011;57470;50.034;15.256;2023-07-13T00:16:03;6.38;;;2.17;;
70102;SDS011;57470;50.034;15.256;2023-07-13T00:18:28;5.30;;;2.37;;
70102;SDS011;57470;50.034;15.256;2023-07-13T00:20:55;9.80;;;2.42;;
70102;SDS011;57470;50.034;15.256;2023-07-13T00:23:21;7.18;;;2.63;;
70102;SDS011;57470;50.034;15.256;2023-07-13T00:25:46;7.17;;;2.53;;
70102;SDS011;57470;50.034;15.256;2023-07-13T00:28:12;6.30;;;2.60;;
70102;SDS011;57470;50.034;15.256;2023-07-13T00:30:37;6.70;;;2.57;;
70102;SDS011;57470;50.034;15.256;2023-07-13T00:33:03;5.95;;;2.80;;
70102;SDS011;57470;50.034;15.256;2023-07-13T00:35:30;6.77;;;2.40;;
70102;SDS011;57470;50.034;15.256;2023-07-13T00:37:55;6.05;;;2.70;;
70102;SDS011;57470;50.034;15.256;2023-07-13T00:40:21;9.57;;;2.87;;
70102;SDS011;57470;50.034;15.256;2023-07-13T00:42:46;7.73;;;2.47;;
70102;SDS011;57470;50.034;15.256;2023-07-13T00:47:37;6.40;;;2.63;;
70102;SDS011;57470;50.034;15.256;2023-07-13T00:50:08;7.30;;;2.30;;
70102;SDS011;57470;50.034;15.256;2023-07-13T00:52:37;10.82;;;2.60;;
70102;SDS011;57470;50.034;15.256;2023-07-13T00:55:09;6.20;;;2.67;;
70102;SDS011;57470;50.034;15.256;2023-07-13T00:57:37;6.25;;;2.60;;
70102;SDS011;57470;50.034;15.256;2023-07-13T01:00:04;7.60;;;2.37;;
70102;SDS011;57470;50.034;15.256;2023-07-13T01:02:31;6.88;;;2.97;;
70102;SDS011;57470;50.034;15.256;2023-07-13T01:04:58;8.10;;;2.70;;
70102;SDS011;57470;50.034;15.256;2023-07-13T01:07:23;9.20;;;2.50;;
70102;SDS011;57470;50.034;15.256;2023-07-13T01:09:49;8.85;;;3.15;;
70102;SDS011;57470;50.034;15.256;2023-07-13T01:12:14;7.27;;;2.47;;
70102;SDS011;57470;50.034;15.256;2023-07-13T01:14:40;5.73;;;2.47;;
70102;SDS011;57470;50.034;15.256;2023-07-13T01:17:07;7.07;;;2.67;;
70102;SDS011;57470;50.034;15.256;2023-07-13T01:19:36;6.20;;;2.38;;
70102;SDS011;57470;50.034;15.256;2023-07-13T01:22:37;5.90;;;2.10;;
70102;SDS011;57470;50.034;15.256;2023-07-13T01:24:57;9.00;;;3.00;;
70102;SDS011;57470;50.034;15.256;2023-07-13T01:27:24;6.40;;;2.83;;
70102;SDS011;57470;50.034;15.256;2023-07-13T01:29:52;9.20;;;2.77;;
70102;SDS011;57470;50.034;15.256;2023-07-13T01:32:27;6.95;;;2.40;;
70102;SDS011;57470;50.034;15.256;2023-07-13T01:34:53;6.97;;;2.93;;
70102;SDS011;57470;50.034;15.256;2023-07-13T01:37:19;5.95;;;2.53;;
70102;SDS011;57470;50.034;15.256;2023-07-13T01:39:45;6.18;;;2.70;;
70102;SDS011;57470;50.034;15.256;2023-07-13T01:42:12;6.40;;;2.60;;
70102;SDS011;57470;50.034;15.256;2023-07-13T01:44:37;6.28;;;2.88;;
70102;SDS011;57470;50.034;15.256;2023-07-13T01:47:03;6.63;;;2.33;;
70102;SDS011;57470;50.034;15.256;2023-07-13T01:49:29;7.57;;;2.97;;
70102;SDS011;57470;50.034;15.256;2023-07-13T01:51:54;6.75;;;2.53;;
70102;SDS011;57470;50.034;15.256;2023-07-13T01:54:19;7.73;;;2.87;;
70102;SDS011;57470;50.034;15.256;2023-07-13T01:56:45;7.07;;;2.87;;
70102;SDS011;57470;50.034;15.256;2023-07-13T01:59:10;8.83;;;3.03;;
70102;SDS011;57470;50.034;15.256;2023-07-13T02:01:36;7.97;;;3.17;;
70102;SDS011;57470;50.034;15.256;2023-07-13T02:04:01;7.88;;;2.55;;
70102;SDS011;57470;50.034;15.256;2023-07-13T02:06:27;6.27;;;2.63;;
70102;SDS011;57470;50.034;15.256;2023-07-13T02:08:53;7.63;;;3.00;;
70102;SDS011;57470;50.034;15.256;2023-07-13T02:11:18;6.30;;;2.33;;
70102;SDS011;57470;50.034;15.256;2023-07-13T02:13:43;7.50;;;2.90;;
70102;SDS011;57470;50.034;15.256;2023-07-13T02:16:09;6.33;;;2.10;;
70102;SDS011;57470;50.034;15.256;2023-07-13T02:18:34;6.80;;;3.00;;
70102;SDS011;57470;50.034;15.256;2023-07-13T02:21:00;6.53;;;3.13;;
70102;SDS011;57470;50.034;15.256;2023-07-13T02:23:25;9.77;;;2.73;;
70102;SDS011;57470;50.034;15.256;2023-07-13T02:25:54;8.43;;;2.63;;
70102;SDS011;57470;50.034;15.256;2023-07-13T02:28:24;7.55;;;2.10;;
70102;SDS011;57470;50.034;15.256;2023-07-13T02:30:50;7.20;;;2.97;;
70102;SDS011;57470;50.034;15.256;2023-07-13T02:33:15;7.13;;;2.87;;
70102;SDS011;57470;50.034;15.256;2023-07-13T02:35:41;6.15;;;2.22;;
70102;SDS011;57470;50.034;15.256;2023-07-13T02:38:06;6.03;;;2.30;;
70102;SDS011;57470;50.034;15.256;2023-07-13T02:40:32;6.67;;;2.73;;
70102;SDS011;57470;50.034;15.256;2023-07-13T02:43:01;7.15;;;2.45;;
70102;SDS011;57470;50.034;15.256;2023-07-13T02:45:27;6.85;;;2.85;;
70102;SDS011;57470;50.034;15.256;2023-07-13T02:47:53;7.27;;;2.70;;
70102;SDS011;57470;50.034;15.256;2023-07-13T02:50:19;6.80;;;2.85;;
70102;SDS011;57470;50.034;15.256;2023-07-13T02:52:45;7.82;;;3.10;;
70102;SDS011;57470;50.034;15.256;2023-07-13T02:55:11;6.63;;;2.53;;
70102;SDS011;57470;50.034;15.256;2023-07-13T02:57:36;12.18;;;2.97;;
70102;SDS011;57470;50.034;15.256;2023-07-13T03:00:02;6.53;;;2.90;;
70102;SDS011;57470;50.034;15.256;2023-07-13T03:02:33;6.65;;;2.30;;
70102;SDS011;57470;50.034;15.256;2023-07-13T03:04:59;6.63;;;2.50;;
70102;SDS011;57470;50.034;15.256;2023-07-13T03:07:25;6.67;;;2.60;;
70102;SDS011;57470;50.034;15.256;2023-07-13T03:09:54;8.18;;;3.05;;
70102;SDS011;57470;50.034;15.256;2023-07-13T03:12:21;11.43;;;2.63;;
70102;SDS011;57470;50.034;15.256;2023-07-13T03:14:46;6.67;;;2.53;;
70102;SDS011;57470;50.034;15.256;2023-07-13T03:17:12;8.30;;;3.40;;
70102;SDS011;57470;50.034;15.256;2023-07-13T03:19:37;11.07;;;3.20;;
70102;SDS011;57470;50.034;15.256;2023-07-13T03:22:02;7.87;;;2.70;;
70102;SDS011;57470;50.034;15.256;2023-07-13T03:24:28;6.40;;;2.58;;
70102;SDS011;57470;50.034;15.256;2023-07-13T03:26:54;8.03;;;2.73;;
70102;SDS011;57470;50.034;15.256;2023-07-13T03:29:19;8.03;;;2.80;;
70102;SDS011;57470;50.034;15.256;2023-07-13T03:31:44;6.50;;;2.33;;
70102;SDS011;57470;50.034;15.256;2023-07-13T03:34:10;6.93;;;2.87;;
70102;SDS011;57470;50.034;15.256;2023-07-13T03:36:35;11.90;;;2.78;;
70102;SDS011;57470;50.034;15.256;2023-07-13T03:39:02;7.17;;;2.87;;
70102;SDS011;57470;50.034;15.256;2023-07-13T03:41:28;9.02;;;3.08;;
70102;SDS011;57470;50.034;15.256;2023-07-13T03:43:53;6.73;;;3.27;;
70102;SDS011;57470;50.034;15.256;2023-07-13T03:46:19;6.63;;;2.75;;
70102;SDS011;57470;50.034;15.256;2023-07-13T03:48:45;7.10;;;2.73;;
70102;SDS011;57470;50.034;15.256;2023-07-13T03:51:12;6.07;;;2.65;;
70102;SDS011;57470;50.034;15.256;2023-07-13T03:53:43;5.97;;;2.40;;
70102;SDS011;57470;50.034;15.256;2023-07-13T03:56:10;6.93;;;3.10;;
70102;SDS011;57470;50.034;15.256;2023-07-13T03:58:36;6.20;;;2.40;;
70102;SDS011;57470;50.034;15.256;2023-07-13T04:01:04;8.30;;;2.67;;
70102;SDS011;57470;50.034;15.256;2023-07-13T04:03:31;7.05;;;2.58;;
70102;SDS011;57470;50.034;15.256;2023-07-13T04:05:58;6.53;;;2.70;;
70102;SDS011;57470;50.034;15.256;2023-07-13T04:08:34;6.20;;;2.88;;
70102;SDS011;57470;50.034;15.256;2023-07-13T04:11:02;6.95;;;2.85;;
70102;SDS011;57470;50.034;15.256;2023-07-13T04:13:28;6.95;;;2.28;;
70102;SDS011;57470;50.034;15.256;2023-07-13T04:15:54;10.00;;;3.20;;
70102;SDS011;57470;50.034;15.256;2023-07-13T04:18:20;7.50;;;2.33;;
70102;SDS011;57470;50.034;15.256;2023-07-13T04:20:46;8.50;;;2.70;;
70102;SDS011;57470;50.034;15.256;2023-07-13T04:23:12;5.97;;;2.70;;
70102;SDS011;57470;50.034;15.256;2023-07-13T04:25:38;7.32;;;3.00;;
70102;SDS011;57470;50.034;15.256;2023-07-13T04:28:04;6.60;;;2.73;;
70102;SDS011;57470;50.034;15.256;2023-07-13T04:30:29;6.07;;;2.28;;
70102;SDS011;57470;50.034;15.256;2023-07-13T04:32:56;5.80;;;3.17;;
70102;SDS011;57470;50.034;15.256;2023-07-13T04:35:22;8.07;;;3.50;;
70102;SDS011;57470;50.034;15.256;2023-07-13T04:37:48;6.50;;;2.83;;
70102;SDS011;57470;50.034;15.256;2023-07-13T04:40:15;7.03;;;2.53;;
70102;SDS011;57470;50.034;15.256;2023-07-13T04:42:42;8.23;;;2.80;;
70102;SDS011;57470;50.034;15.256;2023-07-13T04:45:07;7.47;;;2.67;;
70102;SDS011;57470;50.034;15.256;2023-07-13T04:47:33;8.80;;;3.77;;
70102;SDS011;57470;50.034;15.256;2023-07-13T04:49:58;5.73;;;2.83;;
70102;SDS011;57470;50.034;15.256;2023-07-13T04:52:24;8.85;;;2.58;;
70102;SDS011;57470;50.034;15.256;2023-07-13T04:54:49;6.20;;;2.27;;
70102;SDS011;57470;50.034;15.256;2023-07-13T04:57:15;5.53;;;2.33;;
70102;SDS011;57470;50.034;15.256;2023-07-13T04:59:40;6.03;;;2.17;;
70102;SDS011;57470;50.034;15.256;2023-07-13T05:02:06;5.87;;;2.07;;
70102;SDS011;57470;50.034;15.256;2023-07-13T05:04:31;5.53;;;2.03;;
70102;SDS011;57470;50.034;15.256;2023-07-13T05:06:58;6.00;;;2.30;;
70102;SDS011;57470;50.034;15.256;2023-07-13T05:09:25;6.70;;;2.47;;
70102;SDS011;57470;50.034;15.256;2023-07-13T05:11:50;4.97;;;1.77;;
70102;SDS011;57470;50.034;15.256;2023-07-13T05:14:15;5.93;;;2.10;;
70102;SDS011;57470;50.034;15.256;2023-07-13T05:16:41;5.47;;;1.63;;
70102;SDS011;57470;50.034;15.256;2023-07-13T05:19:07;4.90;;;1.73;;
70102;SDS011;57470;50.034;15.256;2023-07-13T05:21:33;7.53;;;2.00;;
70102;SDS011;57470;50.034;15.256;2023-07-13T05:23:58;5.13;;;1.70;;
70102;SDS011;57470;50.034;15.256;2023-07-13T05:26:24;7.00;;;2.00;;
70102;SDS011;57470;50.034;15.256;2023-07-13T05:28:49;4.63;;;1.30;;
70102;SDS011;57470;50.034;15.256;2023-07-13T05:31:14;5.00;;;1.63;;
70102;SDS011;57470;50.034;15.256;2023-07-13T05:33:40;5.68;;;1.40;;
70102;SDS011;57470;50.034;15.256;2023-07-13T05:36:05;4.13;;;1.63;;
70102;SDS011;57470;50.034;15.256;2023-07-13T05:38:32;6.45;;;1.30;;
70102;SDS011;57470;50.034;15.256;2023-07-13T05:40:58;4.97;;;1.40;;
70102;SDS011;57470;50.034;15.256;2023-07-13T05:43:23;5.23;;;1.70;;
70102;SDS011;57470;50.034;15.256;2023-07-13T05:45:50;4.47;;;1.57;;
70102;SDS011;57470;50.034;15.256;2023-07-13T05:48:18;5.10;;;1.65;;
70102;SDS011;57470;50.034;15.256;2023-07-13T05:50:43;4.17;;;1.30;;
70102;SDS011;57470;50.034;15.256;2023-07-13T05:53:08;7.23;;;2.00;;
70102;SDS011;57470;50.034;15.256;2023-07-13T05:55:34;4.70;;;1.70;;
70102;SDS011;57470;50.034;15.256;2023-07-13T05:58:00;4.30;;;1.60;;
70102;SDS011;57470;50.034;15.256;2023-07-13T06:00:26;4.97;;;2.03;;
70102;SDS011;57470;50.034;15.256;2023-07-13T06:02:51;5.80;;;1.60;;
70102;SDS011;57470;50.034;15.256;2023-07-13T06:05:17;4.47;;;1.30;;
70102;SDS011;57470;50.034;15.256;2023-07-13T06:07:42;4.27;;;1.47;;
70102;SDS011;57470;50.034;15.256;2023-07-13T06:10:08;10.35;;;1.70;;
70102;SDS011;57470;50.034;15.256;2023-07-13T06:12:34;4.63;;;1.40;;
70102;SDS011;57470;50.034;15.256;2023-07-13T06:14:59;4.80;;;1.67;;
70102;SDS011;57470;50.034;15.256;2023-07-13T06:17:24;4.82;;;1.45;;
70102;SDS011;57470;50.034;15.256;2023-07-13T06:19:50;4.93;;;1.63;;
70102;SDS011;57470;50.034;15.256;2023-07-13T06:22:15;4.43;;;1.73;;
70102;SDS011;57470;50.034;15.256;2023-07-13T06:24:40;4.30;;;1.27;;
70102;SDS011;57470;50.034;15.256;2023-07-13T06:27:06;4.10;;;1.30;;
70102;SDS011;57470;50.034;15.256;2023-07-13T06:29:31;4.67;;;1.63;;
70102;SDS011;57470;50.034;15.256;2023-07-13T06:31:57;4.75;;;1.95;;
70102;SDS011;57470;50.034;15.256;2023-07-13T06:34:22;4.47;;;1.40;;
70102;SDS011;57470;50.034;15.256;2023-07-13T06:36:48;4.13;;;1.37;;
70102;SDS011;57470;50.034;15.256;2023-07-13T06:39:13;5.30;;;1.70;;
70102;SDS011;57470;50.034;15.256;2023-07-13T06:41:39;5.07;;;1.73;;
70102;SDS011;57470;50.034;15.256;2023-07-13T06:44:04;8.73;;;1.70;;
70102;SDS011;57470;50.034;15.256;2023-07-13T06:46:31;4.55;;;1.40;;
70102;SDS011;57470;50.034;15.256;2023-07-13T06:48:57;4.30;;;1.33;;
70102;SDS011;57470;50.034;15.256;2023-07-13T06:51:23;4.60;;;1.40;;
70102;SDS011;57470;50.034;15.256;2023-07-13T06:53:48;5.97;;;1.33;;
70102;SDS011;57470;50.034;15.256;2023-07-13T06:56:15;4.93;;;1.65;;
70102;SDS011;57470;50.034;15.256;2023-07-13T06:58:40;4.80;;;1.90;;
70102;SDS011;57470;50.034;15.256;2023-07-13T07:01:05;3.80;;;1.30;;
70102;SDS011;57470;50.034;15.256;2023-07-13T07:03:31;5.37;;;1.73;;
70102;SDS011;57470;50.034;15.256;2023-07-13T07:06:16;5.07;;;1.52;;
70102;SDS011;57470;50.034;15.256;2023-07-13T07:08:43;4.75;;;1.30;;
70102;SDS011;57470;50.034;15.256;2023-07-13T07:11:17;4.20;;;1.53;;
70102;SDS011;57470;50.034;15.256;2023-07-13T07:13:44;4.45;;;1.52;;
70102;SDS011;57470;50.034;15.256;2023-07-13T07:16:10;4.57;;;1.50;;
70102;SDS011;57470;50.034;15.256;2023-07-13T07:18:35;5.57;;;2.30;;
70102;SDS011;57470;50.034;15.256;2023-07-13T07:21:01;5.60;;;1.80;;
70102;SDS011;57470;50.034;15.256;2023-07-13T07:23:27;6.33;;;1.70;;
70102;SDS011;57470;50.034;15.256;2023-07-13T07:25:52;6.63;;;1.83;;
70102;SDS011;57470;50.034;15.256;2023-07-13T07:28:18;6.97;;;2.00;;
70102;SDS011;57470;50.034;15.256;2023-07-13T07:30:47;4.33;;;1.57;;
70102;SDS011;57470;50.034;15.256;2023-07-13T07:33:13;5.53;;;1.80;;
70102;SDS011;57470;50.034;15.256;2023-07-13T07:35:39;5.47;;;2.03;;
70102;SDS011;57470;50.034;15.256;2023-07-13T07:38:04;4.87;;;1.73;;
70102;SDS011;57470;50.034;15.256;2023-07-13T07:40:30;4.32;;;1.67;;
70102;SDS011;57470;50.034;15.256;2023-07-13T07:42:56;5.00;;;2.17;;
70102;SDS011;57470;50.034;15.256;2023-07-13T07:45:22;5.57;;;2.13;;
70102;SDS011;57470;50.034;15.256;2023-07-13T07:47:48;4.10;;;1.20;;
70102;SDS011;57470;50.034;15.256;2023-07-13T07:50:14;4.63;;;1.63;;
70102;SDS011;57470;50.034;15.256;2023-07-13T07:52:39;8.27;;;1.83;;
70102;SDS011;57470;50.034;15.256;2023-07-13T07:55:05;5.93;;;2.00;;
70102;SDS011;57470;50.034;15.256;2023-07-13T07:57:32;6.35;;;2.22;;
70102;SDS011;57470;50.034;15.256;2023-07-13T07:59:57;9.13;;;2.23;;
70102;SDS011;57470;50.034;15.256;2023-07-13T08:02:24;6.67;;;1.53;;
70102;SDS011;57470;50.034;15.256;2023-07-13T08:04:49;4.53;;;1.85;;
70102;SDS011;57470;50.034;15.256;2023-07-13T08:07:15;5.77;;;1.77;;
70102;SDS011;57470;50.034;15.256;2023-07-13T08:09:40;4.93;;;1.83;;
70102;SDS011;57470;50.034;15.256;2023-07-13T08:12:05;5.80;;;2.33;;
70102;SDS011;57470;50.034;15.256;2023-07-13T08:14:31;4.20;;;1.60;;
70102;SDS011;57470;50.034;15.256;2023-07-13T08:16:56;5.67;;;1.60;;
70102;SDS011;57470;50.034;15.256;2023-07-13T08:19:22;4.43;;;1.30;;
70102;SDS011;57470;50.034;15.256;2023-07-13T08:21:47;4.47;;;1.33;;
70102;SDS011;57470;50.034;15.256;2023-07-13T08:24:14;4.38;;;1.33;;
70102;SDS011;57470;50.034;15.256;2023-07-13T08:26:39;4.30;;;1.20;;
70102;SDS011;57470;50.034;15.256;2023-07-13T08:29:04;4.87;;;1.80;;
70102;SDS011;57470;50.034;15.256;2023-07-13T08:31:30;4.67;;;1.80;;
70102;SDS011;57470;50.034;15.256;2023-07-13T08:33:55;4.23;;;1.37;;
70102;SDS011;57470;50.034;15.256;2023-07-13T08:36:21;4.32;;;1.50;;
70102;SDS011;57470;50.034;15.256;2023-07-13T08:38:46;3.97;;;1.60;;
70102;SDS011;57470;50.034;15.256;2023-07-13T08:41:12;4.53;;;1.70;;
70102;SDS011;57470;50.034;15.256;2023-07-13T08:43:40;4.53;;;1.63;;
70102;SDS011;57470;50.034;15.256;2023-07-13T08:48:56;3.97;;;1.05;;
70102;SDS011;57470;50.034;15.256;2023-07-13T08:51:35;3.67;;;1.08;;
70102;SDS011;57470;50.034;15.256;2023-07-13T08:57:09;5.03;;;1.60;;
70102;SDS011;57470;50.034;15.256;2023-07-13T08:59:38;7.07;;;1.40;;
70102;SDS011;57470;50.034;15.256;2023-07-13T09:02:25;4.05;;;1.45;;
70102;SDS011;57470;50.034;15.256;2023-07-13T09:04:59;3.90;;;1.35;;
70102;SDS011;57470;50.034;15.256;2023-07-13T09:07:43;4.57;;;1.27;;
70102;SDS011;57470;50.034;15.256;2023-07-13T09:10:30;4.32;;;1.65;;
70102;SDS011;57470;50.034;15.256;2023-07-13T09:15:31;5.38;;;1.52;;
70102;SDS011;57470;50.034;15.256;2023-07-13T09:18:33;4.32;;;1.50;;
70102;SDS011;57470;50.034;15.256;2023-07-13T09:21:12;5.30;;;1.50;;
70102;SDS011;57470;50.034;15.256;2023-07-13T09:23:40;4.07;;;1.45;;
70102;SDS011;57470;50.034;15.256;2023-07-13T09:26:11;4.17;;;1.50;;
70102;SDS011;57470;50.034;15.256;2023-07-13T09:28:41;4.55;;;1.60;;
70102;SDS011;57470;50.034;15.256;2023-07-13T09:31:24;3.70;;;1.20;;
70102;SDS011;57470;50.034;15.256;2023-07-13T09:33:58;5.03;;;1.30;;
70102;SDS011;57470;50.034;15.256;2023-07-13T09:36:25;4.53;;;1.50;;
70102;SDS011;57470;50.034;15.256;2023-07-13T09:44:31;3.80;;;1.20;;
70102;SDS011;57470;50.034;15.256;2023-07-13T09:47:00;4.78;;;1.33;;
70102;SDS011;57470;50.034;15.256;2023-07-13T09:49:27;4.20;;;1.42;;
70102;SDS011;57470;50.034;15.256;2023-07-13T09:52:04;4.07;;;1.35;;
70102;SDS011;57470;50.034;15.256;2023-07-13T09:54:35;4.20;;;1.90;;
70102;SDS011;57470;50.034;15.256;2023-07-13T09:57:01;4.13;;;1.23;;
70102;SDS011;57470;50.034;15.256;2023-07-13T09:59:30;3.85;;;1.40;;
70102;SDS011;57470;50.034;15.256;2023-07-13T10:01:58;4.85;;;1.35;;
70102;SDS011;57470;50.034;15.256;2023-07-13T10:04:31;4.50;;;1.03;;
70102;SDS011;57470;50.034;15.256;2023-07-13T10:07:08;4.50;;;2.03;;
70102;SDS011;57470;50.034;15.256;2023-07-13T10:09:38;4.60;;;1.25;;
70102;SDS011;57470;50.034;15.256;2023-07-13T10:12:04;4.10;;;1.10;;
70102;SDS011;57470;50.034;15.256;2023-07-13T10:14:38;6.07;;;1.58;;
70102;SDS011;57470;50.034;15.256;2023-07-13T10:17:05;5.05;;;1.30;;
70102;SDS011;57470;50.034;15.256;2023-07-13T10:19:35;4.13;;;1.60;;
70102;SDS011;57470;50.034;15.256;2023-07-13T10:24:45;4.50;;;1.50;;
70102;SDS011;57470;50.034;15.256;2023-07-13T10:29:38;4.73;;;1.53;;
70102;SDS011;57470;50.034;15.256;2023-07-13T10:32:09;4.47;;;1.48;;
70102;SDS011;57470;50.034;15.256;2023-07-13T10:34:36;4.20;;;1.27;;
70102;SDS011;57470;50.034;15.256;2023-07-13T10:37:02;6.10;;;1.60;;
70102;SDS011;57470;50.034;15.256;2023-07-13T10:39:30;3.92;;;1.17;;
70102;SDS011;57470;50.034;15.256;2023-07-13T10:42:03;3.78;;;1.30;;
70102;SDS011;57470;50.034;15.256;2023-07-13T10:44:32;5.05;;;1.80;;
70102;SDS011;57470;50.034;15.256;2023-07-13T10:46:58;3.70;;;1.10;;
70102;SDS011;57470;50.034;15.256;2023-07-13T10:49:28;4.93;;;1.30;;
70102;SDS011;57470;50.034;15.256;2023-07-13T10:51:55;4.40;;;1.33;;
70102;SDS011;57470;50.034;15.256;2023-07-13T10:54:31;3.90;;;1.30;;
70102;SDS011;57470;50.034;15.256;2023-07-13T10:57:14;3.85;;;1.45;;
70102;SDS011;57470;50.034;15.256;2023-07-13T10:59:45;4.93;;;1.58;;
70102;SDS011;57470;50.034;15.256;2023-07-13T11:02:26;6.18;;;1.30;;
70102;SDS011;57470;50.034;15.256;2023-07-13T11:04:54;4.53;;;1.45;;
70102;SDS011;57470;50.034;15.256;2023-07-13T11:07:26;4.40;;;1.83;;
70102;SDS011;57470;50.034;15.256;2023-07-13T11:09:54;7.75;;;1.10;;
70102;SDS011;57470;50.034;15.256;2023-07-13T11:19:53;4.00;;;1.30;;
70102;SDS011;57470;50.034;15.256;2023-07-13T11:22:41;9.68;;;1.50;;
70102;SDS011;57470;50.034;15.256;2023-07-13T11:28:05;4.47;;;1.67;;
70102;SDS011;57470;50.034;15.256;2023-07-13T11:30:50;4.22;;;1.38;;
70102;SDS011;57470;50.034;15.256;2023-07-13T11:36:13;4.10;;;1.17;;
70102;SDS011;57470;50.034;15.256;2023-07-13T11:38:42;4.50;;;1.95;;
70102;SDS011;57470;50.034;15.256;2023-07-13T11:41:21;3.90;;;1.30;;
70102;SDS011;57470;50.034;15.256;2023-07-13T11:43:50;4.55;;;1.63;;
70102;SDS011;57470;50.034;15.256;2023-07-13T11:46:22;5.25;;;1.77;;
70102;SDS011;57470;50.034;15.256;2023-07-13T11:48:50;4.20;;;1.52;;
70102;SDS011;57470;50.034;15.256;2023-07-13T11:51:26;4.57;;;1.65;;
70102;SDS011;57470;50.034;15.256;2023-07-13T11:53:56;5.70;;;1.60;;
70102;SDS011;57470;50.034;15.256;2023-07-13T11:56:24;4.22;;;1.17;;
70102;SDS011;57470;50.034;15.256;2023-07-13T11:58:51;3.92;;;1.50;;
70102;SDS011;57470;50.034;15.256;2023-07-13T12:01:20;5.32;;;1.63;;
70102;SDS011;57470;50.034;15.256;2023-07-13T12:03:49;4.68;;;1.52;;
70102;SDS011;57470;50.034;15.256;2023-07-13T12:06:29;4.70;;;1.70;;
70102;SDS011;57470;50.034;15.256;2023-07-13T12:08:58;5.45;;;1.42;;
70102;SDS011;57470;50.034;15.256;2023-07-13T12:11:25;4.72;;;1.65;;
70102;SDS011;57470;50.034;15.256;2023-07-13T12:13:51;4.15;;;1.35;;
70102;SDS011;57470;50.034;15.256;2023-07-13T12:16:23;4.20;;;1.27;;
70102;SDS011;57470;50.034;15.256;2023-07-13T12:18:59;4.00;;;1.40;;
70102;SDS011;57470;50.034;15.256;2023-07-13T12:21:32;5.68;;;1.40;;
70102;SDS011;57470;50.034;15.256;2023-07-13T12:23:59;4.03;;;1.50;;
70102;SDS011;57470;50.034;15.256;2023-07-13T12:26:27;5.43;;;1.60;;
70102;SDS011;57470;50.034;15.256;2023-07-13T12:28:54;4.00;;;1.40;;
70102;SDS011;57470;50.034;15.256;2023-07-13T12:33:55;6.85;;;1.33;;
70102;SDS011;57470;50.034;15.256;2023-07-13T12:36:33;4.30;;;1.57;;
70102;SDS011;57470;50.034;15.256;2023-07-13T12:39:01;4.88;;;1.83;;
70102;SDS011;57470;50.034;15.256;2023-07-13T12:41:36;3.40;;;1.30;;
70102;SDS011;57470;50.034;15.256;2023-07-13T12:44:01;4.53;;;1.30;;
70102;SDS011;57470;50.034;15.256;2023-07-13T12:46:27;3.73;;;1.20;;
70102;SDS011;57470;50.034;15.256;2023-07-13T12:48:54;4.05;;;1.35;;
70102;SDS011;57470;50.034;15.256;2023-07-13T12:51:22;4.45;;;1.40;;
70102;SDS011;57470;50.034;15.256;2023-07-13T12:54:05;3.88;;;1.13;;
70102;SDS011;57470;50.034;15.256;2023-07-13T12:56:38;4.47;;;1.55;;
70102;SDS011;57470;50.034;15.256;2023-07-13T12:59:04;5.53;;;1.40;;
70102;SDS011;57470;50.034;15.256;2023-07-13T13:01:32;4.10;;;1.30;;
70102;SDS011;57470;50.034;15.256;2023-07-13T13:04:01;4.43;;;1.27;;
70102;SDS011;57470;50.034;15.256;2023-07-13T13:06:33;3.60;;;1.37;;
70102;SDS011;57470;50.034;15.256;2023-07-13T13:09:01;4.70;;;1.40;;
70102;SDS011;57470;50.034;15.256;2023-07-13T13:11:31;5.57;;;1.52;;
70102;SDS011;57470;50.034;15.256;2023-07-13T13:13:57;4.30;;;1.40;;
70102;SDS011;57470;50.034;15.256;2023-07-13T13:16:26;4.23;;;1.43;;
70102;SDS011;57470;50.034;15.256;2023-07-13T13:19:00;3.85;;;1.45;;
70102;SDS011;57470;50.034;15.256;2023-07-13T13:21:45;3.60;;;1.10;;
70102;SDS011;57470;50.034;15.256;2023-07-13T13:24:11;3.80;;;1.35;;
70102;SDS011;57470;50.034;15.256;2023-07-13T13:26:42;4.57;;;1.63;;
70102;SDS011;57470;50.034;15.256;2023-07-13T13:29:18;3.90;;;1.70;;
70102;SDS011;57470;50.034;15.256;2023-07-13T13:31:45;5.20;;;1.90;;
70102;SDS011;57470;50.034;15.256;2023-07-13T13:34:12;4.00;;;1.60;;
70102;SDS011;57470;50.034;15.256;2023-07-13T13:36:39;4.97;;;1.53;;
70102;SDS011;57470;50.034;15.256;2023-07-13T13:39:21;4.45;;;1.58;;
70102;SDS011;57470;50.034;15.256;2023-07-13T13:41:49;4.50;;;1.50;;
70102;SDS011;57470;50.034;15.256;2023-07-13T13:44:16;4.25;;;1.60;;
70102;SDS011;57470;50.034;15.256;2023-07-13T13:46:43;7.20;;;1.70;;
70102;SDS011;57470;50.034;15.256;2023-07-13T13:49:12;4.87;;;1.50;;
70102;SDS011;57470;50.034;15.256;2023-07-13T13:51:40;6.78;;;1.50;;
70102;SDS011;57470;50.034;15.256;2023-07-13T13:54:08;3.90;;;1.33;;
70102;SDS011;57470;50.034;15.256;2023-07-13T13:56:41;4.40;;;1.60;;
70102;SDS011;57470;50.034;15.256;2023-07-13T13:59:10;4.07;;;1.35;;
70102;SDS011;57470;50.034;15.256;2023-07-13T14:01:36;3.53;;;1.27;;
70102;SDS011;57470;50.034;15.256;2023-07-13T14:04:03;4.10;;;1.20;;
70102;SDS011;57470;50.034;15.256;2023-07-13T14:06:30;4.13;;;1.17;;
70102;SDS011;57470;50.034;15.256;2023-07-13T14:08:55;4.50;;;1.90;;
70102;SDS011;57470;50.034;15.256;2023-07-13T14:11:21;5.22;;;1.73;;
70102;SDS011;57470;50.034;15.256;2023-07-13T14:14:09;3.83;;;1.40;;
70102;SDS011;57470;50.034;15.256;2023-07-13T14:16:34;5.65;;;2.10;;
70102;SDS011;57470;50.034;15.256;2023-07-13T14:19:00;4.80;;;1.60;;
70102;SDS011;57470;50.034;15.256;2023-07-13T14:21:26;5.45;;;1.73;;
70102;SDS011;57470;50.034;15.256;2023-07-13T14:23:53;3.95;;;1.33;;
70102;SDS011;57470;50.034;15.256;2023-07-13T14:26:36;3.20;;;0.97;;
70102;SDS011;57470;50.034;15.256;2023-07-13T14:29:04;3.75;;;1.30;;
70102;SDS011;57470;50.034;15.256;2023-07-13T14:31:36;4.22;;;1.35;;
70102;SDS011;57470;50.034;15.256;2023-07-13T14:34:02;4.43;;;1.33;;
70102;SDS011;57470;50.034;15.256;2023-07-13T14:36:31;4.90;;;1.83;;
70102;SDS011;57470;50.034;15.256;2023-07-13T14:39:16;5.05;;;1.52;;
70102;SDS011;57470;50.034;15.256;2023-07-13T14:41:44;4.60;;;1.73;;
70102;SDS011;57470;50.034;15.256;2023-07-13T14:44:13;5.35;;;1.80;;
70102;SDS011;57470;50.034;15.256;2023-07-13T14:46:40;6.00;;;1.90;;
70102;SDS011;57470;50.034;15.256;2023-07-13T14:51:55;5.22;;;1.60;;
70102;SDS011;57470;50.034;15.256;2023-07-13T14:54:22;4.75;;;1.70;;
70102;SDS011;57470;50.034;15.256;2023-07-13T14:56:48;4.20;;;1.63;;
70102;SDS011;57470;50.034;15.256;2023-07-13T14:59:14;4.83;;;1.50;;
70102;SDS011;57470;50.034;15.256;2023-07-13T15:01:39;4.60;;;1.73;;
70102;SDS011;57470;50.034;15.256;2023-07-13T15:04:06;3.78;;;1.27;;
70102;SDS011;57470;50.034;15.256;2023-07-13T15:06:35;4.30;;;1.57;;
70102;SDS011;57470;50.034;15.256;2023-07-13T15:09:26;5.10;;;1.40;;
70102;SDS011;57470;50.034;15.256;2023-07-13T15:11:54;4.40;;;1.70;;
70102;SDS011;57470;50.034;15.256;2023-07-13T15:14:21;4.15;;;1.42;;
70102;SDS011;57470;50.034;15.256;2023-07-13T15:16:48;5.03;;;1.90;;
70102;SDS011;57470;50.034;15.256;2023-07-13T15:19:16;3.97;;;1.33;;